Batavia, NY (14020)

7:05 PM EDT on July 24, 2016 (GMT -0400)
Park Rd | | Change Station

Elev 932 ft 43.01 °N, 78.20 °W | Updated 2 seconds ago

Mostly Cloudy
Mostly Cloudy
80.2 °F
Feels Like 82 °F
N
1.6
Wind Variable Wind from ENE
Gusts 3.0 mph

Today
High -- | Low -- °F
--% Chance of Precip.
Yesterday
High -- | Low -- °F
Precip. -- in
Pressure 29.94 in
Visibility 10.0 miles
Clouds Few 6000 ft
Few 8000 ft
Mostly Cloudy 13000 ft
Mostly Cloudy 20000 ft
Heat Index 82 °F
Dew Point 65 °F
Humidity 60%
Rainfall 0.00 in
Snow Depth Not available.
5:56 AM 8:41 PM
Waning Gibbous, 72% visible
METAR KBUF 242254Z 27003KT 10SM FEW060 FEW080 BKN130 BKN200 29/12 A2995 RMK AO2 SLP136 T02890117
Pressure 29.94 in
Visibility 10.0 miles
Clouds Few 6000 ft
Few 8000 ft
Mostly Cloudy 13000 ft
Mostly Cloudy 20000 ft
Heat Index 82 °F
Dew Point 65 °F
Humidity 60%
Rainfall 0.00 in
Snow Depth Not available.
5:56 AM 8:41 PM
Waning Gibbous, 72% visible
METAR KBUF 242254Z 27003KT 10SM FEW060 FEW080 BKN130 BKN200 29/12 A2995 RMK AO2 SLP136 T02890117

10-Day Weather Forecast

Almanac

Astronomy

Jul. 24, 2016 Rise Set
Actual Time
Civil Twilight
Nautical Twilight
Astronomical Twilight
Moon
Length of Visible Light
Length of Day
Tomorrow will be .
, % of the Moon is Illuminated

Today's Extremes

State Highs State Lows

Community

WunderPhotos

Upload Photos

1,927,204 photos uploaded!

WunderBlog® & News

Nearby

Air Quality

  Air Quality AQ Index Pollutant
Not available.

Snow Depth

Station Depth Elevation

Earthquake Activity

City Distance Mag. Time & Date
Minimum magnitude displayed is 2.5.

Coastal Water Temperatures

Place Temperature

Stations

Nearby Weather Stations

Station Location Temp. Windchill Dew Point Humidity Wind Precip. Elev Updated Type
                   

Watches & Warnings

There are currently no watches in effect.